Lions Gate Bridge — H9LV — position and weather

sailwx.info

Track history (hours):
 
Tides and Currents Weather Stations Pressure Air Temp Water Temp Dewpoint Dewpoint Depression Visibility Wind Speed Wind Dir Waves Ship Positions

Lions Gate Bridge

Last reported at 2014-Jul-31 23:33 UTC. Time now 2014-Jul-31 23:39 UTC.
Position N 49°17' W 123°05'.

Length 284.7 m; beam 40 m.

Type: Cargo ship. MMSI: 351086000.

Date/timePositionNaut miles runAvg speedWind from/ knotsBaromVisibWave heightAir tempDewpointWater temp
2014-Jul-31 23:33N 49°17' W 123°05'0 0.0
2014-Jul-31 22:33N 49°17' W 123°05'0 0.0
2014-Jul-31 21:33N 49°17' W 123°05'0 0.0
2014-Jul-31 20:33N 49°17' W 123°05'0 0.0
2014-Jul-31 19:33N 49°17' W 123°05'0 0.0
2014-Jul-31 18:33N 49°17' W 123°05'0 0.0
2014-Jul-31 17:33N 49°17' W 123°05'0 0.0
2014-Jul-31 16:33N 49°17' W 123°05'0 0.0
2014-Jul-31 15:33N 49°17' W 123°05'0 0.0
2014-Jul-31 14:33N 49°17' W 123°05'0 0.0
2014-Jul-31 13:33N 49°17' W 123°05'0 0.0
2014-Jul-31 12:33N 49°17' W 123°05'0 0.0
2014-Jul-31 11:33N 49°17' W 123°05'0 0.0
2014-Jul-31 10:33N 49°17' W 123°05'0 0.0
2014-Jul-31 09:30N 49°17' W 123°05'0 0.0
2014-Jul-31 08:33N 49°17' W 123°05'0 0.0
2014-Jul-31 07:33N 49°17' W 123°05'0 0.0
2014-Jul-31 06:33N 49°17' W 123°05'0 0.0
2014-Jul-31 05:33N 49°17' W 123°05'0 0.0
2014-Jul-31 04:33N 49°17' W 123°05'0 0.0
2014-Jul-31 03:33N 49°17' W 123°05'0 0.0
2014-Jul-31 02:33N 49°17' W 123°05'0 0.0
2014-Jul-31 01:33N 49°17' W 123°05'0 0.0
2014-Jul-31 00:33N 49°17' W 123°05'0 0.0
2014-Jul-30 23:33N 49°17' W 123°05'0 0.0
2014-Jul-30 22:33N 49°17' W 123°05'0 0.0
2014-Jul-30 21:33N 49°17' W 123°05'1 1.2
2014-Jul-30 20:33N 49°18' W 123°06'1010.3
2014-Jul-30 19:33N 49°12' W 123°20'1414.3
2014-Jul-30 18:34N 48°59' W 123°12'1514.9
2014-Jul-30 17:34N 48°45' W 123°05'1514.9
2014-Jul-30 16:34N 48°30' W 123°11'1212.0
2014-Jul-30 15:33N 48°22' W 123°23'9 9.1
2014-Jul-30 14:33N 48°13' W 123°26'9 9.5
2014-Jul-30 13:34N 48°11' W 123°12'1818.2
2014-Jul-30 12:33N 48°10' W 122°44'2019.9
2014-Jul-30 11:34N 47°53' W 122°28'2120.9
2014-Jul-30 10:34N 47°32' W 122°26'1312.5
2014-Jul-30 09:33N 47°20' W 122°26'4 3.1
2014-Jul-30 08:25N 47°16' W 122°25'0 0.0
2014-Jul-30 07:31N 47°16' W 122°25'0 0.0
2014-Jul-30 06:31N 47°16' W 122°25'0 0.0
2014-Jul-30 05:31N 47°16' W 122°25'0 0.0
2014-Jul-30 04:31N 47°16' W 122°25'0 0.0
2014-Jul-30 03:31N 47°16' W 122°25'0 0.0
2014-Jul-30 02:31N 47°16' W 122°25'0 0.0
2014-Jul-30 01:13N 47°16' W 122°25'0 0.0
2014-Jul-30 00:07N 47°16' W 122°25'0 0.0
2014-Jul-29 23:19N 47°16' W 122°25'0 0.0
2014-Jul-29 22:31N 47°16' W 122°25'0 0.0
2014-Jul-29 21:25N 47°16' W 122°25'0 0.0
2014-Jul-29 20:31N 47°16' W 122°25'0 0.0
2014-Jul-29 19:28N 47°16' W 122°25'0 0.0
2014-Jul-29 18:31N 47°16' W 122°25'0 0.0
2014-Jul-29 17:31N 47°16' W 122°25'0 0.0
2014-Jul-29 16:31N 47°16' W 122°25'0 0.0
2014-Jul-29 11:10N 47°16' W 122°25'0 0.0
2014-Jul-29 05:16N 47°16' W 122°25'0 0.0
2014-Jul-29 04:22N 47°16' W 122°25'0 0.0
2014-Jul-29 03:28N 47°16' W 122°25'0 0.0
2014-Jul-29 01:28N 47°16' W 122°25'0 0.0
2014-Jul-28 21:25N 47°16' W 122°25'0 0.0
2014-Jul-28 20:25N 47°16' W 122°25'0 0.0
2014-Jul-28 19:31N 47°16' W 122°25'0 0.0
2014-Jul-28 18:07N 47°16' W 122°25'0 0.0
2014-Jul-28 15:31N 47°16' W 122°25'0 0.0
2014-Jul-28 12:32N 47°16' W 122°25'4 4.1
2014-Jul-28 11:33N 47°20' W 122°27'1313.0
2014-Jul-28 10:33N 47°33' W 122°26'1716.9
2014-Jul-28 09:34N 47°50' W 122°28'1919.3
2014-Jul-28 08:33N 48°07' W 122°41'2019.6
2014-Jul-28 07:33N 48°12' W 123°10'1313.4
2014-Jul-28 06:33N 48°12' W 123°30'1714.1
2014-Jul-28 05:22N 48°13' W 123°55'1511.6
2014-Jul-28 04:04N 48°20' W 124°16'916.1
2014-Jul-28 03:31N 48°23' W 124°28'1717.4
2014-Jul-28 02:34N 48°29' W 124°51'1919.1
2014-Jul-28 01:34N 48°29' W 125°20'1919.2
2014-Jul-28 00:34N 48°30' W 125°49'1919.2
2014-Jul-27 23:34N 48°35' W 126°17'4719.4
2014-Jul-27 21:09N 48°49' W 127°25'1319.0
2014-Jul-27 20:29N 48°54' W 127°42'  
Track history (hours):
 
Tides and Currents Weather Stations Pressure Air Temp Water Temp Dewpoint Dewpoint Depression Visibility Wind Speed Wind Dir Waves Ship Positions

Lions Gate Bridge

Last reported at 2014-Jul-31 23:33 UTC. Time now 2014-Jul-31 23:39 UTC.
Position N 49°17' W 123°05'.

Length 284.7 m; beam 40 m.

Type: Cargo ship. MMSI: 351086000.

Date/timePositionNaut miles runAvg speedWind from/ knotsBaromVisibWave heightAir tempDewpointWater temp
2014-Jul-31 23:33N 49°17' W 123°05'0 0.0
2014-Jul-31 22:33N 49°17' W 123°05'0 0.0
2014-Jul-31 21:33N 49°17' W 123°05'0 0.0
2014-Jul-31 20:33N 49°17' W 123°05'0 0.0
2014-Jul-31 19:33N 49°17' W 123°05'0 0.0
2014-Jul-31 18:33N 49°17' W 123°05'0 0.0
2014-Jul-31 17:33N 49°17' W 123°05'0 0.0
2014-Jul-31 16:33N 49°17' W 123°05'0 0.0
2014-Jul-31 15:33N 49°17' W 123°05'0 0.0
2014-Jul-31 14:33N 49°17' W 123°05'0 0.0
2014-Jul-31 13:33N 49°17' W 123°05'0 0.0
2014-Jul-31 12:33N 49°17' W 123°05'0 0.0
2014-Jul-31 11:33N 49°17' W 123°05'0 0.0
2014-Jul-31 10:33N 49°17' W 123°05'0 0.0
2014-Jul-31 09:30N 49°17' W 123°05'0 0.0
2014-Jul-31 08:33N 49°17' W 123°05'0 0.0
2014-Jul-31 07:33N 49°17' W 123°05'0 0.0
2014-Jul-31 06:33N 49°17' W 123°05'0 0.0
2014-Jul-31 05:33N 49°17' W 123°05'0 0.0
2014-Jul-31 04:33N 49°17' W 123°05'0 0.0
2014-Jul-31 03:33N 49°17' W 123°05'0 0.0
2014-Jul-31 02:33N 49°17' W 123°05'0 0.0
2014-Jul-31 01:33N 49°17' W 123°05'0 0.0
2014-Jul-31 00:33N 49°17' W 123°05'0 0.0
2014-Jul-30 23:33N 49°17' W 123°05'0 0.0
2014-Jul-30 22:33N 49°17' W 123°05'0 0.0
2014-Jul-30 21:33N 49°17' W 123°05'1 1.2
2014-Jul-30 20:33N 49°18' W 123°06'1010.3
2014-Jul-30 19:33N 49°12' W 123°20'1414.3
2014-Jul-30 18:34N 48°59' W 123°12'1514.9
2014-Jul-30 17:34N 48°45' W 123°05'1514.9
2014-Jul-30 16:34N 48°30' W 123°11'1212.0
2014-Jul-30 15:33N 48°22' W 123°23'9 9.1
2014-Jul-30 14:33N 48°13' W 123°26'9 9.5
2014-Jul-30 13:34N 48°11' W 123°12'1818.2
2014-Jul-30 12:33N 48°10' W 122°44'2019.9
2014-Jul-30 11:34N 47°53' W 122°28'2120.9
2014-Jul-30 10:34N 47°32' W 122°26'1312.5
2014-Jul-30 09:33N 47°20' W 122°26'4 3.1
2014-Jul-30 08:25N 47°16' W 122°25'0 0.0
2014-Jul-30 07:31N 47°16' W 122°25'0 0.0
2014-Jul-30 06:31N 47°16' W 122°25'0 0.0
2014-Jul-30 05:31N 47°16' W 122°25'0 0.0
2014-Jul-30 04:31N 47°16' W 122°25'0 0.0
2014-Jul-30 03:31N 47°16' W 122°25'0 0.0
2014-Jul-30 02:31N 47°16' W 122°25'0 0.0
2014-Jul-30 01:13N 47°16' W 122°25'0 0.0
2014-Jul-30 00:07N 47°16' W 122°25'0 0.0
2014-Jul-29 23:19N 47°16' W 122°25'0 0.0
2014-Jul-29 22:31N 47°16' W 122°25'0 0.0
2014-Jul-29 21:25N 47°16' W 122°25'0 0.0
2014-Jul-29 20:31N 47°16' W 122°25'0 0.0
2014-Jul-29 19:28N 47°16' W 122°25'0 0.0
2014-Jul-29 18:31N 47°16' W 122°25'0 0.0
2014-Jul-29 17:31N 47°16' W 122°25'0 0.0
2014-Jul-29 16:31N 47°16' W 122°25'0 0.0
2014-Jul-29 11:10N 47°16' W 122°25'0 0.0
2014-Jul-29 05:16N 47°16' W 122°25'0 0.0
2014-Jul-29 04:22N 47°16' W 122°25'0 0.0
2014-Jul-29 03:28N 47°16' W 122°25'0 0.0
2014-Jul-29 01:28N 47°16' W 122°25'0 0.0
2014-Jul-28 21:25N 47°16' W 122°25'0 0.0
2014-Jul-28 20:25N 47°16' W 122°25'0 0.0
2014-Jul-28 19:31N 47°16' W 122°25'0 0.0
2014-Jul-28 18:07N 47°16' W 122°25'0 0.0
2014-Jul-28 15:31N 47°16' W 122°25'0 0.0
2014-Jul-28 12:32N 47°16' W 122°25'4 4.1
2014-Jul-28 11:33N 47°20' W 122°27'1313.0
2014-Jul-28 10:33N 47°33' W 122°26'1716.9
2014-Jul-28 09:34N 47°50' W 122°28'1919.3
2014-Jul-28 08:33N 48°07' W 122°41'2019.6
2014-Jul-28 07:33N 48°12' W 123°10'1313.4
2014-Jul-28 06:33N 48°12' W 123°30'1714.1
2014-Jul-28 05:22N 48°13' W 123°55'1511.6
2014-Jul-28 04:04N 48°20' W 124°16'916.1
2014-Jul-28 03:31N 48°23' W 124°28'1717.4
2014-Jul-28 02:34N 48°29' W 124°51'1919.1
2014-Jul-28 01:34N 48°29' W 125°20'1919.2
2014-Jul-28 00:34N 48°30' W 125°49'1919.2
2014-Jul-27 23:34N 48°35' W 126°17'4719.4
2014-Jul-27 21:09N 48°49' W 127°25'1319.0
2014-Jul-27 20:29N 48°54' W 127°42'  

Dump ship's entire track history